createdAt,value
2019-05-18T00:01:33.117Z,9.93
2019-05-18T00:04:02.607Z,10.03
2019-05-18T00:06:32.136Z,10.80
2019-05-18T00:09:01.628Z,10.57
2019-05-18T00:11:31.148Z,11.47
2019-05-18T00:14:00.643Z,10.33
2019-05-18T00:16:30.163Z,11.27
2019-05-18T00:18:59.742Z,11.27
2019-05-18T00:21:29.254Z,12.30
2019-05-18T00:23:58.764Z,11.23
2019-05-18T00:26:28.267Z,11.37
2019-05-18T00:28:57.799Z,12.60
2019-05-18T00:31:27.304Z,12.70
2019-05-18T00:33:56.808Z,12.73
2019-05-18T00:36:26.289Z,13.83
2019-05-18T00:38:55.777Z,13.10
2019-05-18T00:41:25.292Z,13.60
2019-05-18T00:43:54.828Z,13.60
2019-05-18T00:46:23.676Z,13.67
2019-05-18T00:48:53.191Z,14.07
2019-05-18T00:51:23.404Z,13.83
2019-05-18T00:53:53.189Z,15.87
2019-05-18T00:56:22.703Z,14.63
2019-05-18T00:58:52.336Z,15.10
2019-05-18T01:01:21.229Z,15.23
2019-05-18T01:03:50.734Z,15.33
2019-05-18T01:06:20.237Z,15.00
2019-05-18T01:08:49.760Z,15.97
2019-05-18T01:11:33.670Z,15.13
2019-05-18T01:14:03.521Z,16.23
2019-05-18T01:16:33.044Z,15.37
2019-05-18T01:19:02.549Z,16.17
2019-05-18T01:21:32.084Z,15.55
2019-05-18T01:24:01.570Z,16.17
2019-05-18T01:26:31.128Z,16.70
2019-05-18T01:29:05.278Z,16.00
2019-05-18T01:31:35.258Z,15.90
2019-05-18T01:34:05.300Z,14.90
2019-05-18T01:36:34.967Z,16.13
2019-05-18T01:39:06.145Z,15.93
2019-05-18T01:41:35.754Z,15.70
2019-05-18T01:44:05.319Z,16.70
2019-05-18T01:46:34.798Z,16.90
2019-05-18T01:49:04.271Z,15.43
2019-05-18T01:51:33.894Z,16.67
2019-05-18T01:54:03.357Z,16.53
2019-05-18T01:56:32.839Z,15.97
2019-05-18T01:59:02.346Z,15.77
2019-05-18T02:01:31.817Z,16.70
2019-05-18T02:04:01.293Z,16.93
2019-05-18T02:06:30.766Z,16.33
2019-05-18T02:09:00.293Z,15.67
2019-05-18T02:11:29.782Z,16.23
2019-05-18T02:13:59.271Z,15.40
2019-05-18T02:16:28.751Z,16.30
2019-05-18T02:18:58.219Z,16.77
2019-05-18T02:21:27.704Z,16.00
2019-05-18T02:23:57.228Z,15.87
2019-05-18T02:26:26.712Z,16.07
2019-05-18T02:28:56.201Z,15.30
2019-05-18T02:31:25.703Z,15.73
2019-05-18T02:33:55.175Z,16.57
2019-05-18T02:36:24.642Z,14.83
2019-05-18T02:38:54.120Z,15.90
2019-05-18T02:41:23.626Z,16.30
2019-05-18T02:43:53.119Z,15.43
2019-05-18T02:46:22.607Z,16.00
2019-05-18T02:48:52.094Z,15.47
2019-05-18T02:51:21.629Z,17.90
2019-05-18T02:53:51.102Z,17.10
2019-05-18T02:56:20.581Z,17.10
2019-05-18T02:58:50.076Z,16.77
2019-05-18T03:01:19.566Z,17.37
2019-05-18T03:03:49.064Z,17.57
2019-05-18T03:06:18.569Z,17.30
2019-05-18T03:08:48.081Z,17.43
2019-05-18T03:11:17.537Z,17.17
2019-05-18T03:13:47.036Z,16.63
2019-05-18T03:16:16.524Z,16.23
2019-05-18T03:18:46.005Z,16.73
2019-05-18T03:21:15.486Z,15.83
2019-05-18T03:23:44.943Z,16.77
2019-05-18T03:26:14.459Z,17.20
2019-05-18T03:28:43.916Z,17.73
2019-05-18T03:31:13.394Z,17.70
2019-05-18T03:33:42.842Z,17.10
2019-05-18T03:36:12.327Z,18.13
2019-05-18T03:38:41.833Z,17.80
2019-05-18T03:41:11.337Z,17.20
2019-05-18T03:43:40.809Z,17.93
2019-05-18T03:46:10.323Z,17.17
2019-05-18T03:48:39.801Z,17.87
2019-05-18T03:51:08.643Z,16.53
2019-05-18T03:53:38.100Z,16.40
2019-05-18T03:56:07.611Z,17.20
2019-05-18T03:58:37.112Z,16.30
2019-05-18T04:01:06.580Z,16.80
2019-05-18T04:03:36.049Z,16.27
2019-05-18T04:06:05.521Z,16.67
2019-05-18T04:08:35.179Z,18.77
2019-05-18T04:11:04.676Z,18.47
2019-05-18T04:13:34.135Z,17.47
2019-05-18T04:16:03.613Z,18.53
2019-05-18T04:18:33.106Z,16.97
2019-05-18T04:21:07.287Z,18.07
2019-05-18T04:23:36.798Z,17.93
2019-05-18T04:26:06.266Z,17.77
2019-05-18T04:28:35.764Z,13.83
2019-05-18T04:31:05.235Z,16.40
2019-05-18T04:33:34.722Z,17.57
2019-05-18T04:36:04.186Z,16.93
2019-05-18T04:38:33.713Z,16.27
2019-05-18T04:41:02.573Z,16.67
2019-05-18T04:43:32.082Z,15.77
2019-05-18T04:46:01.595Z,17.00
2019-05-18T04:48:31.078Z,17.70
2019-05-18T04:51:00.562Z,18.33
2019-05-18T04:53:30.054Z,18.67
2019-05-18T04:55:59.817Z,19.10
2019-05-18T04:58:29.360Z,17.87
2019-05-18T05:00:58.931Z,18.70
2019-05-18T05:03:28.400Z,19.50
2019-05-18T05:05:57.886Z,16.70
2019-05-18T05:08:27.381Z,17.17
2019-05-18T05:10:56.861Z,18.27
2019-05-18T05:13:26.355Z,19.77
2019-05-18T05:15:55.838Z,18.82
2019-05-18T05:18:25.316Z,17.93
2019-05-18T05:20:54.820Z,18.60
2019-05-18T05:23:24.308Z,18.10
2019-05-18T05:25:53.800Z,18.53
2019-05-18T05:28:23.255Z,18.70
2019-05-18T05:30:52.731Z,17.37
2019-05-18T05:33:22.196Z,19.67
2019-05-18T05:35:51.694Z,19.57
2019-05-18T05:38:21.187Z,20.07
2019-05-18T05:40:50.688Z,19.30
2019-05-18T05:43:20.167Z,19.53
2019-05-18T05:45:49.634Z,17.90
2019-05-18T05:48:19.107Z,17.93
2019-05-18T05:50:48.581Z,18.93
2019-05-18T05:53:18.064Z,18.17
2019-05-18T05:55:47.551Z,18.63
2019-05-18T05:58:17.114Z,19.20
2019-05-18T06:00:46.778Z,18.47
2019-05-18T06:03:16.283Z,17.93
2019-05-18T06:05:45.838Z,17.80
2019-05-18T06:08:15.311Z,17.77
2019-05-18T06:10:44.786Z,17.37
2019-05-18T06:13:14.350Z,18.10
2019-05-18T06:15:43.851Z,18.43
2019-05-18T06:18:13.332Z,18.53
2019-05-18T06:20:50.967Z,17.00
2019-05-18T06:23:13.913Z,17.97
2019-05-18T06:25:43.395Z,17.60
2019-05-18T06:28:12.875Z,18.30
2019-05-18T06:30:42.368Z,17.60
2019-05-18T06:33:11.877Z,18.43
2019-05-18T06:35:41.390Z,17.67
2019-05-18T06:38:10.889Z,16.33
2019-05-18T06:40:40.387Z,17.07
2019-05-18T06:43:09.887Z,15.23
2019-05-18T06:45:39.395Z,14.78
2019-05-18T06:48:08.880Z,13.73
2019-05-18T06:50:38.383Z,13.00
2019-05-18T06:53:07.925Z,14.00
2019-05-18T06:55:37.410Z,13.05
2019-05-18T06:58:07.710Z,13.20
2019-05-18T07:00:37.161Z,13.05
2019-05-18T07:03:06.664Z,13.38
2019-05-18T07:05:36.183Z,13.62
2019-05-18T07:08:05.710Z,12.98
2019-05-18T07:10:35.203Z,13.00
2019-05-18T07:13:04.696Z,11.57
2019-05-18T07:15:34.185Z,12.53
2019-05-18T07:18:03.636Z,11.35
2019-05-18T07:20:33.128Z,12.37
2019-05-18T07:23:02.625Z,11.80
2019-05-18T07:25:32.222Z,12.82
2019-05-18T07:28:01.759Z,13.75
2019-05-18T07:30:31.194Z,11.65
2019-05-18T07:33:00.689Z,12.00
2019-05-18T07:35:30.169Z,11.88
2019-05-18T07:37:59.697Z,11.18
2019-05-18T07:40:29.177Z,12.28
2019-05-18T07:42:58.023Z,14.53
2019-05-18T07:45:27.527Z,13.05
2019-05-18T07:47:57.014Z,11.83
2019-05-18T07:50:26.535Z,12.68
2019-05-18T07:52:56.427Z,11.78
2019-05-18T07:55:25.917Z,10.03
2019-05-18T07:57:55.422Z,9.73
2019-05-18T08:00:24.961Z,9.13
2019-05-18T08:02:54.442Z,9.98
2019-05-18T08:05:23.965Z,8.60
2019-05-18T08:07:53.434Z,8.45
2019-05-18T08:10:43.700Z,8.85
2019-05-18T08:13:13.634Z,9.08
2019-05-18T08:15:43.121Z,9.20
2019-05-18T08:18:12.584Z,8.00
2019-05-18T08:20:42.301Z,8.53
2019-05-18T08:23:11.779Z,8.13
2019-05-18T08:25:41.284Z,10.20
2019-05-18T08:28:10.753Z,8.95
2019-05-18T08:30:40.241Z,10.85
2019-05-18T08:33:09.709Z,10.03
2019-05-18T08:35:39.178Z,9.53
2019-05-18T08:38:08.660Z,9.48
2019-05-18T08:40:38.266Z,7.95
2019-05-18T08:43:07.741Z,8.85
2019-05-18T08:45:37.219Z,8.63
2019-05-18T08:48:06.793Z,8.63
2019-05-18T08:50:36.276Z,8.10
2019-05-18T08:53:05.755Z,9.85
2019-05-18T08:55:35.218Z,7.95
2019-05-18T08:58:04.709Z,7.75
2019-05-18T09:00:33.561Z,6.65
2019-05-18T09:03:03.211Z,6.97
2019-05-18T09:05:32.692Z,6.60
2019-05-18T09:08:02.191Z,7.67
2019-05-18T09:10:31.670Z,6.65
2019-05-18T09:13:01.262Z,7.53
2019-05-18T09:15:32.338Z,7.42
2019-05-18T09:18:04.742Z,6.42
2019-05-18T09:20:33.049Z,5.72
2019-05-18T09:23:02.501Z,5.72
2019-05-18T09:25:32.055Z,5.95
2019-05-18T09:28:01.538Z,5.78
2019-05-18T09:30:31.061Z,6.67
2019-05-18T09:33:00.546Z,5.40
2019-05-18T09:35:30.075Z,5.42
2019-05-18T09:37:59.534Z,4.40
2019-05-18T09:40:29.015Z,4.95
2019-05-18T09:42:58.531Z,4.58
2019-05-18T09:45:28.010Z,4.58
2019-05-18T09:47:57.494Z,3.75
2019-05-18T09:50:26.983Z,4.58
2019-05-18T09:52:56.476Z,4.70
2019-05-18T09:55:25.933Z,3.85
2019-05-18T09:57:55.409Z,3.55
2019-05-18T10:00:25.086Z,3.33
2019-05-18T10:02:54.566Z,4.10
2019-05-18T10:05:24.194Z,3.47
2019-05-18T10:07:53.664Z,3.40
2019-05-18T10:10:23.175Z,3.37
2019-05-18T10:12:52.661Z,3.67
2019-05-18T10:15:22.265Z,3.22
2019-05-18T10:17:51.733Z,3.60
2019-05-18T10:20:21.498Z,3.60
2019-05-18T10:23:04.145Z,3.37
2019-05-18T10:25:22.111Z,3.10
2019-05-18T10:27:51.637Z,3.47
2019-05-18T10:30:21.193Z,3.45
2019-05-18T10:32:50.693Z,3.30
2019-05-18T10:35:20.168Z,3.70
2019-05-18T10:37:49.633Z,3.25
2019-05-18T10:40:19.716Z,3.25
2019-05-18T10:42:49.188Z,3.02
2019-05-18T10:45:18.780Z,3.00
2019-05-18T10:47:48.247Z,3.10
2019-05-18T10:50:17.733Z,3.60
2019-05-18T10:52:47.197Z,3.40
2019-05-18T10:55:16.797Z,3.30
2019-05-18T10:57:46.269Z,3.25
2019-05-18T11:00:16.089Z,3.00
2019-05-18T11:02:45.579Z,3.10
2019-05-18T11:05:15.506Z,2.90
2019-05-18T11:07:45.007Z,2.77
2019-05-18T11:10:14.585Z,2.70
2019-05-18T11:12:44.056Z,2.67
2019-05-18T11:15:14.134Z,2.08
2019-05-18T11:17:43.633Z,2.40
2019-05-18T11:20:14.520Z,3.17
2019-05-18T11:22:44.007Z,2.85
2019-05-18T11:25:13.995Z,2.50
2019-05-18T11:27:43.490Z,2.40
2019-05-18T11:30:14.057Z,2.47
2019-05-18T11:32:43.563Z,1.90
2019-05-18T11:35:13.969Z,2.05
2019-05-18T11:37:43.532Z,2.20
2019-05-18T11:40:13.659Z,2.45
2019-05-18T11:42:43.125Z,2.00
2019-05-18T11:45:14.795Z,2.27
2019-05-18T11:47:44.286Z,1.95
2019-05-18T11:50:14.360Z,2.00
2019-05-18T11:52:43.947Z,2.00
2019-05-18T11:55:14.868Z,1.90
2019-05-18T11:57:44.351Z,2.37
2019-05-18T12:00:15.245Z,2.50
2019-05-18T12:02:44.747Z,3.02
2019-05-18T12:05:15.636Z,3.08
2019-05-18T12:07:45.176Z,2.70
2019-05-18T12:10:18.227Z,3.90
2019-05-18T12:12:46.183Z,3.80
2019-05-18T12:15:16.875Z,2.77
2019-05-18T12:17:46.342Z,2.77
2019-05-18T12:20:16.122Z,3.20
2019-05-18T12:22:45.615Z,3.60
2019-05-18T12:25:15.193Z,3.95
2019-05-18T12:27:44.749Z,3.83
2019-05-18T12:30:15.476Z,3.35
2019-05-18T12:32:44.974Z,2.77
2019-05-18T12:35:14.668Z,2.60
2019-05-18T12:37:44.137Z,2.70
2019-05-18T12:40:17.594Z,3.33
2019-05-18T12:42:47.197Z,2.67
2019-05-18T12:45:17.677Z,3.45
2019-05-18T12:47:47.176Z,3.98
2019-05-18T12:50:17.827Z,3.90
2019-05-18T12:52:47.304Z,3.40
2019-05-18T12:55:17.166Z,3.30
2019-05-18T12:57:46.638Z,3.40
2019-05-18T13:00:17.252Z,2.85
2019-05-18T13:02:46.140Z,2.95
2019-05-18T13:05:15.086Z,2.77
2019-05-18T13:07:44.589Z,3.10
2019-05-18T13:10:14.830Z,3.85
2019-05-18T13:12:44.307Z,3.45
2019-05-18T13:15:13.424Z,3.00
2019-05-18T13:17:43.309Z,3.67
2019-05-18T13:20:14.091Z,2.80
2019-05-18T13:22:43.596Z,3.72
2019-05-18T13:25:14.106Z,3.60
2019-05-18T13:27:43.575Z,3.52
2019-05-18T13:30:14.494Z,3.30
2019-05-18T13:32:44.017Z,3.30
2019-05-18T13:35:15.385Z,2.98
2019-05-18T13:37:44.873Z,2.92
2019-05-18T13:40:14.848Z,3.52
2019-05-18T13:42:44.356Z,3.42
2019-05-18T13:45:14.713Z,3.60
2019-05-18T13:47:44.336Z,3.75
2019-05-18T13:50:14.315Z,3.80
2019-05-18T13:52:43.853Z,3.27
2019-05-18T13:55:13.381Z,3.65
2019-05-18T13:57:42.844Z,2.95
2019-05-18T14:00:12.445Z,3.00
2019-05-18T14:02:42.025Z,3.67
2019-05-18T14:05:11.951Z,4.40
2019-05-18T14:07:41.465Z,3.65
2019-05-18T14:10:12.669Z,3.60
2019-05-18T14:12:42.355Z,3.45
2019-05-18T14:15:13.016Z,3.50
2019-05-18T14:17:42.491Z,2.87
2019-05-18T14:20:11.949Z,2.95
2019-05-18T14:22:41.421Z,2.83
2019-05-18T14:25:19.361Z,3.12
2019-05-18T14:27:41.801Z,3.30
2019-05-18T14:30:12.475Z,3.33
2019-05-18T14:32:41.383Z,2.98
2019-05-18T14:35:11.551Z,3.40
2019-05-18T14:37:41.059Z,3.12
2019-05-18T14:40:11.098Z,4.12
2019-05-18T14:42:41.133Z,3.35
2019-05-18T14:45:10.907Z,3.40
2019-05-18T14:47:40.410Z,3.55
2019-05-18T14:50:11.105Z,3.77
2019-05-18T14:52:40.677Z,3.15
2019-05-18T14:55:10.407Z,3.42
2019-05-18T14:57:39.884Z,2.80
2019-05-18T15:00:11.382Z,3.77
2019-05-18T15:02:40.837Z,3.27
2019-05-18T15:05:10.833Z,3.33
2019-05-18T15:07:40.356Z,3.65
2019-05-18T15:10:10.617Z,3.58
2019-05-18T15:12:40.115Z,2.70
2019-05-18T15:15:10.474Z,2.92
2019-05-18T15:17:39.972Z,3.17
2019-05-18T15:20:10.344Z,3.15
2019-05-18T15:22:39.820Z,3.30
2019-05-18T15:25:10.833Z,2.95
2019-05-18T15:27:40.327Z,3.50
2019-05-18T15:30:10.625Z,3.10
2019-05-18T15:32:40.154Z,3.30
2019-05-18T15:35:10.645Z,3.42
2019-05-18T15:37:43.415Z,3.67
2019-05-18T15:40:11.847Z,3.60
2019-05-18T15:42:41.360Z,3.10
2019-05-18T15:45:11.992Z,3.00
2019-05-18T15:47:41.449Z,3.55
2019-05-18T15:50:11.317Z,3.40
2019-05-18T15:52:40.802Z,3.27
2019-05-18T15:55:10.568Z,3.05
2019-05-18T15:57:40.069Z,2.77
2019-05-18T16:00:10.531Z,3.15
2019-05-18T16:02:40.017Z,3.45
2019-05-18T16:05:10.033Z,3.30
2019-05-18T16:07:39.609Z,2.60
2019-05-18T16:10:11.114Z,3.10
2019-05-18T16:12:39.972Z,2.80
2019-05-18T16:15:10.389Z,3.30
2019-05-18T16:17:40.459Z,3.00
2019-05-18T16:20:10.869Z,2.60
2019-05-18T16:22:40.313Z,3.25
2019-05-18T16:25:10.319Z,2.77
2019-05-18T16:27:39.816Z,3.08
2019-05-18T16:30:11.925Z,3.08
2019-05-18T16:32:41.426Z,2.60
2019-05-18T16:35:11.407Z,2.92
2019-05-18T16:37:40.854Z,2.70
2019-05-18T16:40:10.432Z,3.00
2019-05-18T16:42:39.928Z,3.40
2019-05-18T16:45:10.348Z,3.10
2019-05-18T16:47:39.205Z,3.00
2019-05-18T16:50:08.997Z,3.10
2019-05-18T16:52:38.486Z,2.47
2019-05-18T16:55:08.710Z,2.77
2019-05-18T16:57:38.180Z,2.90
2019-05-18T17:00:09.901Z,2.87
2019-05-18T17:02:39.378Z,3.10
2019-05-18T17:05:09.478Z,3.25
2019-05-18T17:07:38.994Z,2.77
2019-05-18T17:10:09.071Z,2.60
2019-05-18T17:12:38.584Z,2.83
2019-05-18T17:15:09.115Z,2.58
2019-05-18T17:17:38.598Z,2.50
2019-05-18T17:20:08.580Z,2.50
2019-05-18T17:22:38.039Z,2.90
2019-05-18T17:25:08.496Z,2.67
2019-05-18T17:27:38.002Z,2.65
2019-05-18T17:30:08.116Z,2.83
2019-05-18T17:32:37.599Z,2.90
2019-05-18T17:35:07.157Z,2.72
2019-05-18T17:37:36.789Z,2.62
2019-05-18T17:40:06.805Z,2.60
2019-05-18T17:42:36.295Z,2.42
2019-05-18T17:45:06.345Z,2.85
2019-05-18T17:47:35.833Z,2.50
2019-05-18T17:50:07.856Z,2.47
2019-05-18T17:52:37.052Z,2.40
2019-05-18T17:55:07.260Z,2.37
2019-05-18T17:57:36.780Z,2.40
2019-05-18T18:00:05.643Z,2.30
2019-05-18T18:02:35.205Z,2.30
2019-05-18T18:05:05.067Z,2.60
2019-05-18T18:07:34.564Z,2.10
2019-05-18T18:10:04.771Z,2.40
2019-05-18T18:12:34.260Z,2.27
2019-05-18T18:15:04.343Z,2.50
2019-05-18T18:17:33.833Z,2.50
2019-05-18T18:20:03.326Z,1.92
2019-05-18T18:22:32.783Z,2.20
2019-05-18T18:25:01.660Z,2.30
2019-05-18T18:27:31.130Z,2.10
2019-05-18T18:30:00.615Z,2.10
2019-05-18T18:32:30.092Z,2.35
2019-05-18T18:34:59.576Z,2.37
2019-05-18T18:37:29.092Z,2.17
2019-05-18T18:39:58.582Z,2.35
2019-05-18T18:42:28.068Z,2.12
2019-05-18T18:44:57.592Z,2.33
2019-05-18T18:47:27.007Z,2.47
2019-05-18T18:49:56.489Z,2.67
2019-05-18T18:52:25.954Z,2.40
2019-05-18T18:54:55.418Z,2.80
2019-05-18T18:57:38.508Z,2.60
2019-05-18T18:59:57.053Z,2.50
2019-05-18T19:02:26.077Z,3.10
2019-05-18T19:04:55.585Z,2.90
2019-05-18T19:07:25.200Z,2.90
2019-05-18T19:09:54.685Z,2.55
2019-05-18T19:12:24.133Z,3.12
2019-05-18T19:14:53.621Z,2.65
2019-05-18T19:17:23.098Z,2.90
2019-05-18T19:19:52.561Z,3.20
2019-05-18T19:22:22.056Z,2.87
2019-05-18T19:24:51.562Z,3.12
2019-05-18T19:27:21.018Z,3.25
2019-05-18T19:29:50.483Z,3.30
2019-05-18T19:32:19.944Z,3.35
2019-05-18T19:34:49.423Z,3.25
2019-05-18T19:37:18.893Z,3.65
2019-05-18T19:39:48.378Z,3.42
2019-05-18T19:42:18.731Z,4.10
2019-05-18T19:44:48.267Z,4.17
2019-05-18T19:47:17.758Z,3.95
2019-05-18T19:49:47.229Z,3.95
2019-05-18T19:52:16.708Z,3.75
2019-05-18T19:54:46.196Z,3.95
2019-05-18T19:57:15.688Z,3.95
2019-05-18T19:59:45.150Z,4.00
2019-05-18T20:02:18.222Z,3.90
2019-05-18T20:05:03.928Z,3.77
2019-05-18T20:07:16.872Z,3.90
2019-05-18T20:09:46.329Z,4.15
2019-05-18T20:12:15.824Z,4.00
2019-05-18T20:14:45.307Z,3.72
2019-05-18T20:17:14.881Z,4.20
2019-05-18T20:19:44.317Z,3.77
2019-05-18T20:22:13.814Z,3.90
2019-05-18T20:24:43.289Z,4.62
2019-05-18T20:27:12.756Z,3.95
2019-05-18T20:29:42.286Z,4.37
2019-05-18T20:32:11.735Z,3.80
2019-05-18T20:34:41.219Z,4.10
2019-05-18T20:37:10.678Z,3.90
2019-05-18T20:39:40.168Z,4.55
2019-05-18T20:42:09.661Z,4.03
2019-05-18T20:44:39.204Z,4.20
2019-05-18T20:47:08.684Z,4.35
2019-05-18T20:49:37.544Z,4.50
2019-05-18T20:52:07.028Z,4.22
2019-05-18T20:54:36.530Z,4.42
2019-05-18T20:57:06.039Z,11.33
2019-05-18T20:59:35.566Z,7.00
2019-05-18T21:02:05.034Z,5.12
2019-05-18T21:04:34.522Z,4.78
2019-05-18T21:07:03.977Z,4.55
2019-05-18T21:09:33.530Z,4.53
2019-05-18T21:12:02.977Z,4.20
2019-05-18T21:14:32.451Z,3.72
2019-05-18T21:17:01.999Z,3.60
2019-05-18T21:19:31.483Z,3.83
2019-05-18T21:22:00.966Z,3.62
2019-05-18T21:24:30.439Z,3.77
2019-05-18T21:26:59.938Z,3.65
2019-05-18T21:29:29.381Z,3.90
2019-05-18T21:31:58.884Z,3.83
2019-05-18T21:34:28.320Z,3.67
2019-05-18T21:36:57.836Z,4.08
2019-05-18T21:39:27.354Z,3.98
2019-05-18T21:41:56.835Z,3.92
2019-05-18T21:44:26.276Z,3.67
2019-05-18T21:46:55.763Z,3.90
2019-05-18T21:49:25.221Z,3.95
2019-05-18T21:51:54.074Z,4.25
2019-05-18T21:54:23.563Z,3.47
2019-05-18T21:56:53.021Z,3.87
2019-05-18T21:59:22.536Z,4.03
2019-05-18T22:01:52.025Z,4.50
2019-05-18T22:04:21.498Z,3.87
2019-05-18T22:06:50.983Z,3.70
2019-05-18T22:09:20.462Z,3.70
2019-05-18T22:11:49.954Z,3.70
2019-05-18T22:14:19.456Z,3.45
2019-05-18T22:16:48.943Z,4.10
2019-05-18T22:19:18.408Z,3.77
2019-05-18T22:21:47.898Z,3.80
2019-05-18T22:24:17.392Z,3.40
2019-05-18T22:26:46.830Z,3.80
2019-05-18T22:29:16.317Z,3.47
2019-05-18T22:31:45.803Z,3.62
2019-05-18T22:34:15.281Z,3.92
2019-05-18T22:36:44.738Z,3.83
2019-05-18T22:39:14.345Z,3.55
2019-05-18T22:41:43.198Z,3.50
2019-05-18T22:44:12.687Z,4.20
2019-05-18T22:46:42.153Z,3.60
2019-05-18T22:49:11.683Z,4.23
2019-05-18T22:51:41.178Z,3.87
2019-05-18T22:54:10.655Z,3.50
2019-05-18T22:56:40.157Z,3.65
2019-05-18T22:59:09.652Z,3.80
2019-05-18T23:01:39.142Z,3.70
2019-05-18T23:04:08.651Z,3.73
2019-05-18T23:06:38.125Z,3.72
2019-05-18T23:09:08.038Z,3.70
2019-05-18T23:11:37.486Z,4.03
2019-05-18T23:14:06.956Z,3.77
2019-05-18T23:16:36.432Z,3.33
2019-05-18T23:19:05.937Z,3.60
2019-05-18T23:21:35.458Z,3.37
2019-05-18T23:24:04.981Z,3.50
2019-05-18T23:26:34.441Z,3.33
2019-05-18T23:29:04.217Z,3.30
2019-05-18T23:31:33.071Z,3.60
2019-05-18T23:34:02.531Z,3.13
2019-05-18T23:36:32.040Z,3.50
2019-05-18T23:39:01.497Z,3.20
2019-05-18T23:41:31.015Z,3.10
2019-05-18T23:44:00.493Z,2.95
2019-05-18T23:46:30.009Z,2.87
2019-05-18T23:49:10.023Z,3.47
2019-05-18T23:51:30.647Z,3.50
2019-05-18T23:54:00.148Z,3.67
2019-05-18T23:56:29.629Z,3.20
2019-05-18T23:58:59.113Z,3.47
